Birch River, West Virginia
Current Conditions -  °F | °C
As of 11:35 AM on Wednesday 22 Oct 2014 (Local Time) from KW22 Reporting Station
Overcast Overcast  
Wind Chill:   Ceiling: 1200
Heat Index:   Visibility: 10mi
Dew Point:   Wind: 6mph
Humidity: 100%   Direction: 360°N
Pressure: 30.15"   Gusts: NA
Location:  38.5°N, 80.75°W
Report Text: KW22 221535Z AUTO 36005KT 10SM OVC012 07/07 A3015 RMK AO2
Loading
Personal Weather Stations






























Interactive Weather Map
Tropical Storm Tracking
New forecast layout! Learn more

10-Day Weather Forecast

Advertisements
Track Severe Weather on mobile